sensor_id;sensor_type;location;lat;lon;timestamp;P1;durP1;ratioP1;P2;durP2;ratioP2
23322;SDS011;11833;52.554;13.554;2023-02-22T01:02:44;12.95;;;3.90;;
23322;SDS011;11833;52.554;13.554;2023-02-22T01:05:11;20.30;;;4.13;;
23322;SDS011;11833;52.554;13.554;2023-02-22T01:07:38;17.40;;;3.50;;
23322;SDS011;11833;52.554;13.554;2023-02-22T01:10:05;16.20;;;3.50;;
23322;SDS011;11833;52.554;13.554;2023-02-22T01:12:34;17.88;;;3.83;;
23322;SDS011;11833;52.554;13.554;2023-02-22T01:15:02;17.05;;;3.40;;
23322;SDS011;11833;52.554;13.554;2023-02-22T01:17:30;16.23;;;3.53;;
23322;SDS011;11833;52.554;13.554;2023-02-22T01:19:56;17.88;;;3.38;;
23322;SDS011;11833;52.554;13.554;2023-02-22T01:22:22;15.32;;;3.28;;
23322;SDS011;11833;52.554;13.554;2023-02-22T01:24:48;16.33;;;3.67;;
23322;SDS011;11833;52.554;13.554;2023-02-22T01:27:15;16.20;;;3.13;;
23322;SDS011;11833;52.554;13.554;2023-02-22T01:29:42;19.30;;;4.05;;
23322;SDS011;11833;52.554;13.554;2023-02-22T01:32:08;21.33;;;5.88;;
23322;SDS011;11833;52.554;13.554;2023-02-22T01:34:36;21.55;;;3.60;;
23322;SDS011;11833;52.554;13.554;2023-02-22T01:37:02;16.67;;;4.45;;
23322;SDS011;11833;52.554;13.554;2023-02-22T01:39:30;20.35;;;3.30;;
23322;SDS011;11833;52.554;13.554;2023-02-22T01:41:56;18.38;;;3.67;;
23322;SDS011;11833;52.554;13.554;2023-02-22T01:46:59;24.25;;;4.00;;
23322;SDS011;11833;52.554;13.554;2023-02-22T01:49:32;12.63;;;3.80;;
23322;SDS011;11833;52.554;13.554;2023-02-22T01:52:11;14.10;;;3.22;;
23322;SDS011;11833;52.554;13.554;2023-02-22T01:54:44;17.77;;;5.10;;
23322;SDS011;11833;52.554;13.554;2023-02-22T01:57:23;20.40;;;3.35;;
23322;SDS011;11833;52.554;13.554;2023-02-22T01:59:57;21.90;;;4.70;;
23322;SDS011;11833;52.554;13.554;2023-02-22T02:02:34;19.17;;;3.53;;
23322;SDS011;11833;52.554;13.554;2023-02-22T02:05:06;13.85;;;3.42;;
23322;SDS011;11833;52.554;13.554;2023-02-22T02:07:33;14.30;;;3.28;;
23322;SDS011;11833;52.554;13.554;2023-02-22T02:10:03;20.48;;;3.78;;
23322;SDS011;11833;52.554;13.554;2023-02-22T02:12:38;13.55;;;2.92;;
23322;SDS011;11833;52.554;13.554;2023-02-22T02:15:15;13.43;;;3.53;;
23322;SDS011;11833;52.554;13.554;2023-02-22T02:17:47;15.98;;;3.03;;
23322;SDS011;11833;52.554;13.554;2023-02-22T02:26:02;19.30;;;3.97;;
23322;SDS011;11833;52.554;13.554;2023-02-22T02:35:27;15.95;;;2.92;;
23322;SDS011;11833;52.554;13.554;2023-02-22T02:49:04;16.17;;;3.67;;
23322;SDS011;11833;52.554;13.554;2023-02-22T02:51:38;21.98;;;3.50;;
23322;SDS011;11833;52.554;13.554;2023-02-22T02:54:08;15.52;;;4.75;;
23322;SDS011;11833;52.554;13.554;2023-02-22T02:56:35;24.10;;;4.45;;
23322;SDS011;11833;52.554;13.554;2023-02-22T02:59:02;28.80;;;4.30;;
23322;SDS011;11833;52.554;13.554;2023-02-22T03:18:49;20.88;;;3.67;;
23322;SDS011;11833;52.554;13.554;2023-02-22T03:21:32;19.50;;;3.53;;
23322;SDS011;11833;52.554;13.554;2023-02-22T03:24:36;16.83;;;3.80;;
23322;SDS011;11833;52.554;13.554;2023-02-22T03:27:28;20.75;;;3.40;;
23322;SDS011;11833;52.554;13.554;2023-02-22T03:29:57;21.23;;;3.72;;
23322;SDS011;11833;52.554;13.554;2023-02-22T03:32:32;19.08;;;3.67;;
23322;SDS011;11833;52.554;13.554;2023-02-22T03:35:09;15.70;;;3.65;;
23322;SDS011;11833;52.554;13.554;2023-02-22T03:37:43;17.95;;;3.45;;
23322;SDS011;11833;52.554;13.554;2023-02-22T03:40:14;12.25;;;3.17;;
23322;SDS011;11833;52.554;13.554;2023-02-22T03:42:51;16.42;;;3.45;;
23322;SDS011;11833;52.554;13.554;2023-02-22T03:45:24;19.08;;;3.10;;
23322;SDS011;11833;52.554;13.554;2023-02-22T03:47:55;21.65;;;3.65;;
23322;SDS011;11833;52.554;13.554;2023-02-22T03:50:32;17.75;;;3.97;;
23322;SDS011;11833;52.554;13.554;2023-02-22T03:53:01;12.20;;;3.38;;
23322;SDS011;11833;52.554;13.554;2023-02-22T03:55:27;11.60;;;3.80;;
23322;SDS011;11833;52.554;13.554;2023-02-22T03:57:56;15.90;;;2.92;;
23322;SDS011;11833;52.554;13.554;2023-02-22T04:00:25;20.98;;;4.13;;
23322;SDS011;11833;52.554;13.554;2023-02-22T04:02:53;17.98;;;3.63;;
23322;SDS011;11833;52.554;13.554;2023-02-22T04:05:19;21.88;;;4.35;;
23322;SDS011;11833;52.554;13.554;2023-02-22T04:07:46;20.48;;;4.72;;
23322;SDS011;11833;52.554;13.554;2023-02-22T04:10:12;15.18;;;3.92;;
23322;SDS011;11833;52.554;13.554;2023-02-22T04:12:39;16.70;;;3.47;;
23322;SDS011;11833;52.554;13.554;2023-02-22T04:15:05;21.50;;;3.45;;
23322;SDS011;11833;52.554;13.554;2023-02-22T04:17:33;21.27;;;4.80;;
23322;SDS011;11833;52.554;13.554;2023-02-22T04:19:59;19.33;;;3.88;;
23322;SDS011;11833;52.554;13.554;2023-02-22T04:22:25;11.55;;;3.78;;
23322;SDS011;11833;52.554;13.554;2023-02-22T04:24:50;16.65;;;3.65;;
23322;SDS011;11833;52.554;13.554;2023-02-22T04:27:17;18.20;;;3.47;;
23322;SDS011;11833;52.554;13.554;2023-02-22T04:29:43;21.98;;;4.43;;
23322;SDS011;11833;52.554;13.554;2023-02-22T04:32:09;16.60;;;3.65;;
23322;SDS011;11833;52.554;13.554;2023-02-22T04:34:34;13.85;;;3.55;;
23322;SDS011;11833;52.554;13.554;2023-02-22T04:37:00;17.70;;;4.40;;
23322;SDS011;11833;52.554;13.554;2023-02-22T04:39:26;18.17;;;3.97;;
23322;SDS011;11833;52.554;13.554;2023-02-22T04:41:51;23.80;;;4.32;;
23322;SDS011;11833;52.554;13.554;2023-02-22T04:44:17;17.05;;;3.67;;
23322;SDS011;11833;52.554;13.554;2023-02-22T04:46:43;17.30;;;3.75;;
23322;SDS011;11833;52.554;13.554;2023-02-22T04:49:10;14.43;;;4.10;;
23322;SDS011;11833;52.554;13.554;2023-02-22T04:51:36;17.80;;;3.72;;
23322;SDS011;11833;52.554;13.554;2023-02-22T04:54:02;19.52;;;4.43;;
23322;SDS011;11833;52.554;13.554;2023-02-22T04:56:28;14.32;;;3.45;;
23322;SDS011;11833;52.554;13.554;2023-02-22T04:58:53;13.32;;;4.50;;
23322;SDS011;11833;52.554;13.554;2023-02-22T05:01:19;21.00;;;4.50;;
23322;SDS011;11833;52.554;13.554;2023-02-22T05:03:45;12.05;;;3.58;;
23322;SDS011;11833;52.554;13.554;2023-02-22T05:06:11;15.90;;;4.15;;
23322;SDS011;11833;52.554;13.554;2023-02-22T05:08:37;20.58;;;4.97;;
23322;SDS011;11833;52.554;13.554;2023-02-22T05:11:02;12.93;;;3.80;;
23322;SDS011;11833;52.554;13.554;2023-02-22T05:13:29;15.35;;;4.35;;
23322;SDS011;11833;52.554;13.554;2023-02-22T05:15:55;15.68;;;3.10;;
23322;SDS011;11833;52.554;13.554;2023-02-22T05:18:21;23.08;;;4.00;;
23322;SDS011;11833;52.554;13.554;2023-02-22T05:20:47;15.00;;;3.80;;
23322;SDS011;11833;52.554;13.554;2023-02-22T05:23:13;19.80;;;5.28;;
23322;SDS011;11833;52.554;13.554;2023-02-22T05:25:39;16.80;;;3.78;;
23322;SDS011;11833;52.554;13.554;2023-02-22T05:28:10;14.65;;;4.10;;
23322;SDS011;11833;52.554;13.554;2023-02-22T05:30:39;21.75;;;4.43;;
23322;SDS011;11833;52.554;13.554;2023-02-22T05:33:05;18.52;;;3.60;;
23322;SDS011;11833;52.554;13.554;2023-02-22T05:35:31;16.52;;;3.08;;
23322;SDS011;11833;52.554;13.554;2023-02-22T05:37:57;19.25;;;3.80;;
23322;SDS011;11833;52.554;13.554;2023-02-22T05:40:25;12.63;;;3.45;;
23322;SDS011;11833;52.554;13.554;2023-02-22T05:42:52;15.77;;;3.78;;
23322;SDS011;11833;52.554;13.554;2023-02-22T05:45:19;17.83;;;3.88;;
23322;SDS011;11833;52.554;13.554;2023-02-22T05:47:47;11.90;;;3.63;;
23322;SDS011;11833;52.554;13.554;2023-02-22T05:50:13;12.43;;;3.00;;
23322;SDS011;11833;52.554;13.554;2023-02-22T05:52:41;14.32;;;3.28;;
23322;SDS011;11833;52.554;13.554;2023-02-22T05:55:08;19.73;;;8.10;;
23322;SDS011;11833;52.554;13.554;2023-02-22T05:57:36;24.27;;;6.95;;
23322;SDS011;11833;52.554;13.554;2023-02-22T06:00:03;21.20;;;4.82;;
23322;SDS011;11833;52.554;13.554;2023-02-22T06:02:31;18.20;;;5.50;;
23322;SDS011;11833;52.554;13.554;2023-02-22T06:04:57;14.63;;;4.53;;
23322;SDS011;11833;52.554;13.554;2023-02-22T06:07:24;18.58;;;4.30;;
23322;SDS011;11833;52.554;13.554;2023-02-22T06:09:51;19.63;;;3.80;;
23322;SDS011;11833;52.554;13.554;2023-02-22T06:12:17;15.00;;;3.60;;
23322;SDS011;11833;52.554;13.554;2023-02-22T06:14:43;16.08;;;3.92;;
23322;SDS011;11833;52.554;13.554;2023-02-22T06:17:10;12.98;;;3.78;;
23322;SDS011;11833;52.554;13.554;2023-02-22T06:19:37;16.77;;;4.50;;
23322;SDS011;11833;52.554;13.554;2023-02-22T06:22:04;18.40;;;4.55;;
23322;SDS011;11833;52.554;13.554;2023-02-22T06:24:31;9.80;;;3.05;;
23322;SDS011;11833;52.554;13.554;2023-02-22T06:26:58;15.60;;;3.85;;
23322;SDS011;11833;52.554;13.554;2023-02-22T06:29:27;8.77;;;3.33;;
23322;SDS011;11833;52.554;13.554;2023-02-22T06:31:53;17.58;;;4.35;;
23322;SDS011;11833;52.554;13.554;2023-02-22T06:34:20;14.77;;;3.97;;
23322;SDS011;11833;52.554;13.554;2023-02-22T06:36:46;17.23;;;4.05;;
23322;SDS011;11833;52.554;13.554;2023-02-22T06:39:13;13.02;;;3.58;;
23322;SDS011;11833;52.554;13.554;2023-02-22T06:41:41;13.82;;;3.50;;
23322;SDS011;11833;52.554;13.554;2023-02-22T06:44:07;15.13;;;3.60;;
23322;SDS011;11833;52.554;13.554;2023-02-22T06:46:35;15.73;;;4.03;;
23322;SDS011;11833;52.554;13.554;2023-02-22T06:49:01;13.93;;;3.67;;
23322;SDS011;11833;52.554;13.554;2023-02-22T06:51:28;13.18;;;3.05;;
23322;SDS011;11833;52.554;13.554;2023-02-22T06:53:55;15.05;;;3.47;;
23322;SDS011;11833;52.554;13.554;2023-02-22T06:56:20;19.17;;;3.05;;
23322;SDS011;11833;52.554;13.554;2023-02-22T06:58:46;27.05;;;6.40;;
23322;SDS011;11833;52.554;13.554;2023-02-22T07:01:13;17.30;;;4.00;;
23322;SDS011;11833;52.554;13.554;2023-02-22T07:03:39;18.73;;;4.82;;
23322;SDS011;11833;52.554;13.554;2023-02-22T07:06:05;15.13;;;3.47;;
23322;SDS011;11833;52.554;13.554;2023-02-22T07:08:31;14.27;;;3.50;;
23322;SDS011;11833;52.554;13.554;2023-02-22T07:10:58;9.68;;;2.97;;
23322;SDS011;11833;52.554;13.554;2023-02-22T07:13:24;14.70;;;4.05;;
23322;SDS011;11833;52.554;13.554;2023-02-22T07:15:49;18.10;;;5.00;;
23322;SDS011;11833;52.554;13.554;2023-02-22T07:18:15;14.95;;;5.00;;
23322;SDS011;11833;52.554;13.554;2023-02-22T07:20:41;14.82;;;3.65;;
23322;SDS011;11833;52.554;13.554;2023-02-22T07:23:07;19.05;;;5.45;;
23322;SDS011;11833;52.554;13.554;2023-02-22T07:25:33;11.10;;;3.83;;
23322;SDS011;11833;52.554;13.554;2023-02-22T07:27:59;18.73;;;4.72;;
23322;SDS011;11833;52.554;13.554;2023-02-22T07:30:30;21.10;;;4.22;;
23322;SDS011;11833;52.554;13.554;2023-02-22T07:33:07;19.67;;;4.18;;
23322;SDS011;11833;52.554;13.554;2023-02-22T07:35:36;9.95;;;3.70;;
23322;SDS011;11833;52.554;13.554;2023-02-22T07:38:08;11.38;;;4.18;;
23322;SDS011;11833;52.554;13.554;2023-02-22T07:40:34;11.60;;;3.80;;
23322;SDS011;11833;52.554;13.554;2023-02-22T07:43:24;14.30;;;4.32;;
23322;SDS011;11833;52.554;13.554;2023-02-22T07:45:52;20.40;;;3.90;;
23322;SDS011;11833;52.554;13.554;2023-02-22T07:48:20;15.38;;;4.70;;
23322;SDS011;11833;52.554;13.554;2023-02-22T07:50:48;10.23;;;3.42;;
23322;SDS011;11833;52.554;13.554;2023-02-22T07:53:25;14.05;;;3.65;;
23322;SDS011;11833;52.554;13.554;2023-02-22T07:55:54;11.90;;;3.63;;
23322;SDS011;11833;52.554;13.554;2023-02-22T07:58:26;21.73;;;3.75;;
23322;SDS011;11833;52.554;13.554;2023-02-22T08:00:54;16.75;;;3.55;;
23322;SDS011;11833;52.554;13.554;2023-02-22T08:03:21;22.50;;;4.05;;
23322;SDS011;11833;52.554;13.554;2023-02-22T08:05:54;10.77;;;3.45;;
23322;SDS011;11833;52.554;13.554;2023-02-22T08:08:22;17.50;;;4.45;;
23322;SDS011;11833;52.554;13.554;2023-02-22T08:10:48;22.00;;;4.28;;
23322;SDS011;11833;52.554;13.554;2023-02-22T08:13:15;18.33;;;3.50;;
23322;SDS011;11833;52.554;13.554;2023-02-22T08:15:42;12.82;;;3.10;;
23322;SDS011;11833;52.554;13.554;2023-02-22T08:18:12;18.08;;;4.43;;
23322;SDS011;11833;52.554;13.554;2023-02-22T08:20:41;12.57;;;2.97;;
23322;SDS011;11833;52.554;13.554;2023-02-22T08:23:08;16.02;;;4.95;;
23322;SDS011;11833;52.554;13.554;2023-02-22T08:25:36;16.90;;;4.57;;
23322;SDS011;11833;52.554;13.554;2023-02-22T08:28:03;16.48;;;3.55;;
23322;SDS011;11833;52.554;13.554;2023-02-22T08:30:35;18.85;;;4.32;;
23322;SDS011;11833;52.554;13.554;2023-02-22T08:33:02;19.05;;;4.15;;
23322;SDS011;11833;52.554;13.554;2023-02-22T08:35:29;17.48;;;4.72;;
23322;SDS011;11833;52.554;13.554;2023-02-22T08:38:00;11.57;;;3.85;;
23322;SDS011;11833;52.554;13.554;2023-02-22T08:40:30;12.10;;;4.75;;
23322;SDS011;11833;52.554;13.554;2023-02-22T08:42:59;17.10;;;3.45;;
23322;SDS011;11833;52.554;13.554;2023-02-22T08:45:28;16.20;;;5.57;;
23322;SDS011;11833;52.554;13.554;2023-02-22T08:47:54;20.05;;;5.07;;
23322;SDS011;11833;52.554;13.554;2023-02-22T08:50:23;18.35;;;5.05;;
23322;SDS011;11833;52.554;13.554;2023-02-22T08:52:55;15.57;;;4.65;;
23322;SDS011;11833;52.554;13.554;2023-02-22T08:55:23;18.05;;;4.85;;
23322;SDS011;11833;52.554;13.554;2023-02-22T08:57:51;17.63;;;4.63;;
23322;SDS011;11833;52.554;13.554;2023-02-22T09:00:18;11.25;;;4.88;;
23322;SDS011;11833;52.554;13.554;2023-02-22T09:02:48;17.10;;;4.68;;
23322;SDS011;11833;52.554;13.554;2023-02-22T09:05:15;11.00;;;3.33;;
23322;SDS011;11833;52.554;13.554;2023-02-22T09:07:41;16.58;;;4.88;;
23322;SDS011;11833;52.554;13.554;2023-02-22T09:10:15;13.98;;;4.20;;
23322;SDS011;11833;52.554;13.554;2023-02-22T09:12:48;17.85;;;4.82;;
23322;SDS011;11833;52.554;13.554;2023-02-22T09:15:15;20.58;;;4.75;;
23322;SDS011;11833;52.554;13.554;2023-02-22T09:17:41;15.02;;;4.70;;
23322;SDS011;11833;52.554;13.554;2023-02-22T09:20:07;17.05;;;4.85;;
23322;SDS011;11833;52.554;13.554;2023-02-22T09:22:36;14.90;;;3.97;;
23322;SDS011;11833;52.554;13.554;2023-02-22T09:25:02;17.17;;;4.18;;
23322;SDS011;11833;52.554;13.554;2023-02-22T09:27:29;10.48;;;3.88;;
23322;SDS011;11833;52.554;13.554;2023-02-22T09:29:55;21.02;;;5.50;;
23322;SDS011;11833;52.554;13.554;2023-02-22T09:32:22;17.45;;;4.40;;
23322;SDS011;11833;52.554;13.554;2023-02-22T09:34:51;16.25;;;4.43;;
23322;SDS011;11833;52.554;13.554;2023-02-22T09:37:18;9.82;;;3.22;;
23322;SDS011;11833;52.554;13.554;2023-02-22T09:39:44;21.60;;;5.63;;
23322;SDS011;11833;52.554;13.554;2023-02-22T09:45:20;16.10;;;3.95;;
23322;SDS011;11833;52.554;13.554;2023-02-22T09:48:00;17.40;;;4.45;;
23322;SDS011;11833;52.554;13.554;2023-02-22T09:50:33;20.23;;;4.70;;
23322;SDS011;11833;52.554;13.554;2023-02-22T09:55:55;16.67;;;3.78;;
23322;SDS011;11833;52.554;13.554;2023-02-22T09:58:35;15.88;;;4.00;;
23322;SDS011;11833;52.554;13.554;2023-02-22T10:04:22;12.63;;;3.78;;
23322;SDS011;11833;52.554;13.554;2023-02-22T10:09:31;10.10;;;2.60;;
23322;SDS011;11833;52.554;13.554;2023-02-22T10:12:08;15.38;;;4.28;;
23322;SDS011;11833;52.554;13.554;2023-02-22T10:23:08;15.13;;;2.92;;
23322;SDS011;11833;52.554;13.554;2023-02-22T10:28:49;13.52;;;3.30;;
23322;SDS011;11833;52.554;13.554;2023-02-22T10:31:29;22.45;;;3.55;;
23322;SDS011;11833;52.554;13.554;2023-02-22T10:34:02;19.52;;;4.18;;
23322;SDS011;11833;52.554;13.554;2023-02-22T10:36:37;11.80;;;2.97;;
23322;SDS011;11833;52.554;13.554;2023-02-22T10:41:57;15.07;;;3.40;;
23322;SDS011;11833;52.554;13.554;2023-02-22T10:44:33;12.48;;;3.03;;
23322;SDS011;11833;52.554;13.554;2023-02-22T10:47:01;25.27;;;5.20;;
23322;SDS011;11833;52.554;13.554;2023-02-22T10:49:40;13.55;;;4.05;;
23322;SDS011;11833;52.554;13.554;2023-02-22T10:52:27;15.65;;;3.25;;
23322;SDS011;11833;52.554;13.554;2023-02-22T10:55:02;13.25;;;3.42;;
23322;SDS011;11833;52.554;13.554;2023-02-22T10:57:34;10.57;;;3.17;;
23322;SDS011;11833;52.554;13.554;2023-02-22T11:03:15;16.40;;;3.85;;
23322;SDS011;11833;52.554;13.554;2023-02-22T11:05:45;11.85;;;3.05;;
23322;SDS011;11833;52.554;13.554;2023-02-22T11:10:46;14.38;;;3.88;;
23322;SDS011;11833;52.554;13.554;2023-02-22T11:13:24;14.77;;;3.47;;
23322;SDS011;11833;52.554;13.554;2023-02-22T11:18:44;19.65;;;3.50;;
23322;SDS011;11833;52.554;13.554;2023-02-22T11:21:11;10.05;;;3.10;;
23322;SDS011;11833;52.554;13.554;2023-02-22T11:23:46;15.30;;;3.83;;
23322;SDS011;11833;52.554;13.554;2023-02-22T11:26:16;12.52;;;2.97;;
23322;SDS011;11833;52.554;13.554;2023-02-22T11:28:48;12.77;;;2.55;;
23322;SDS011;11833;52.554;13.554;2023-02-22T11:31:27;17.27;;;3.05;;
23322;SDS011;11833;52.554;13.554;2023-02-22T11:34:00;11.77;;;2.95;;
23322;SDS011;11833;52.554;13.554;2023-02-22T11:36:37;12.70;;;2.85;;
23322;SDS011;11833;52.554;13.554;2023-02-22T11:39:19;10.15;;;2.30;;
23322;SDS011;11833;52.554;13.554;2023-02-22T11:47:58;12.23;;;2.80;;
23322;SDS011;11833;52.554;13.554;2023-02-22T11:50:30;8.57;;;2.42;;
23322;SDS011;11833;52.554;13.554;2023-02-22T11:59:03;12.52;;;2.60;;
23322;SDS011;11833;52.554;13.554;2023-02-22T12:02:23;14.00;;;2.53;;
23322;SDS011;11833;52.554;13.554;2023-02-22T12:22:21;10.98;;;2.47;;
23322;SDS011;11833;52.554;13.554;2023-02-22T12:24:59;20.15;;;3.25;;
23322;SDS011;11833;52.554;13.554;2023-02-22T12:30:17;12.18;;;2.42;;
23322;SDS011;11833;52.554;13.554;2023-02-22T12:32:53;9.02;;;2.47;;
23322;SDS011;11833;52.554;13.554;2023-02-22T12:40:45;14.82;;;2.42;;
23322;SDS011;11833;52.554;13.554;2023-02-22T12:43:42;12.25;;;3.38;;
23322;SDS011;11833;52.554;13.554;2023-02-22T12:52:23;16.60;;;3.58;;
23322;SDS011;11833;52.554;13.554;2023-02-22T12:55:19;15.38;;;2.95;;
23322;SDS011;11833;52.554;13.554;2023-02-22T13:01:00;9.77;;;2.20;;
23322;SDS011;11833;52.554;13.554;2023-02-22T13:03:44;13.32;;;4.25;;
23322;SDS011;11833;52.554;13.554;2023-02-22T13:12:05;15.18;;;2.40;;
23322;SDS011;11833;52.554;13.554;2023-02-22T13:14:42;12.20;;;2.03;;
23322;SDS011;11833;52.554;13.554;2023-02-22T13:20:51;10.43;;;2.25;;
23322;SDS011;11833;52.554;13.554;2023-02-22T13:29:01;9.30;;;2.20;;
23322;SDS011;11833;52.554;13.554;2023-02-22T13:54:02;9.60;;;2.17;;
23322;SDS011;11833;52.554;13.554;2023-02-22T13:56:45;12.52;;;2.80;;
23322;SDS011;11833;52.554;13.554;2023-02-22T14:02:00;8.05;;;2.30;;
23322;SDS011;11833;52.554;13.554;2023-02-22T14:06:54;15.43;;;2.47;;
23322;SDS011;11833;52.554;13.554;2023-02-22T14:17:47;17.77;;;3.35;;
23322;SDS011;11833;52.554;13.554;2023-02-22T14:20:26;12.18;;;2.70;;
23322;SDS011;11833;52.554;13.554;2023-02-22T14:25:54;14.02;;;2.70;;
23322;SDS011;11833;52.554;13.554;2023-02-22T14:31:09;13.45;;;2.85;;
23322;SDS011;11833;52.554;13.554;2023-02-22T14:36:20;8.43;;;2.25;;
23322;SDS011;11833;52.554;13.554;2023-02-22T14:38:50;13.27;;;2.50;;
23322;SDS011;11833;52.554;13.554;2023-02-22T14:41:18;8.63;;;2.40;;
23322;SDS011;11833;52.554;13.554;2023-02-22T14:43:51;8.60;;;2.13;;
23322;SDS011;11833;52.554;13.554;2023-02-22T14:46:20;9.48;;;2.63;;
23322;SDS011;11833;52.554;13.554;2023-02-22T14:48:51;14.27;;;2.95;;
23322;SDS011;11833;52.554;13.554;2023-02-22T14:51:26;10.45;;;3.53;;
23322;SDS011;11833;52.554;13.554;2023-02-22T14:54:10;9.20;;;2.95;;
23322;SDS011;11833;52.554;13.554;2023-02-22T14:56:54;8.57;;;2.55;;
23322;SDS011;11833;52.554;13.554;2023-02-22T15:00:12;9.38;;;1.98;;
23322;SDS011;11833;52.554;13.554;2023-02-22T15:02:47;8.10;;;2.70;;
23322;SDS011;11833;52.554;13.554;2023-02-22T15:05:18;12.77;;;3.50;;
23322;SDS011;11833;52.554;13.554;2023-02-22T15:08:18;12.57;;;2.92;;
23322;SDS011;11833;52.554;13.554;2023-02-22T15:10:43;11.80;;;2.90;;
23322;SDS011;11833;52.554;13.554;2023-02-22T15:13:13;17.83;;;2.53;;
23322;SDS011;11833;52.554;13.554;2023-02-22T15:18:38;7.32;;;2.90;;
23322;SDS011;11833;52.554;13.554;2023-02-22T15:21:11;12.48;;;2.97;;
23322;SDS011;11833;52.554;13.554;2023-02-22T15:23:42;12.40;;;2.67;;
23322;SDS011;11833;52.554;13.554;2023-02-22T15:28:59;11.45;;;2.13;;
23322;SDS011;11833;52.554;13.554;2023-02-22T15:31:31;13.35;;;2.85;;
23322;SDS011;11833;52.554;13.554;2023-02-22T15:36:51;17.13;;;2.28;;
23322;SDS011;11833;52.554;13.554;2023-02-22T15:39:26;9.32;;;2.50;;
23322;SDS011;11833;52.554;13.554;2023-02-22T15:42:15;12.85;;;2.78;;
23322;SDS011;11833;52.554;13.554;2023-02-22T15:44:47;8.85;;;2.05;;
23322;SDS011;11833;52.554;13.554;2023-02-22T15:47:25;17.08;;;3.05;;
23322;SDS011;11833;52.554;13.554;2023-02-22T15:52:39;14.55;;;2.90;;
23322;SDS011;11833;52.554;13.554;2023-02-22T15:55:33;8.75;;;2.47;;
23322;SDS011;11833;52.554;13.554;2023-02-22T16:00:39;6.78;;;2.40;;
23322;SDS011;11833;52.554;13.554;2023-02-22T16:03:08;9.73;;;2.58;;
23322;SDS011;11833;52.554;13.554;2023-02-22T16:05:49;7.75;;;2.60;;
23322;SDS011;11833;52.554;13.554;2023-02-22T16:08:21;7.75;;;1.75;;
23322;SDS011;11833;52.554;13.554;2023-02-22T16:13:50;12.18;;;2.50;;
23322;SDS011;11833;52.554;13.554;2023-02-22T16:18:49;10.60;;;2.40;;
23322;SDS011;11833;52.554;13.554;2023-02-22T16:21:17;7.47;;;1.73;;
23322;SDS011;11833;52.554;13.554;2023-02-22T16:23:49;12.65;;;2.25;;
23322;SDS011;11833;52.554;13.554;2023-02-22T16:26:28;10.50;;;2.30;;
23322;SDS011;11833;52.554;13.554;2023-02-22T16:31:24;8.95;;;2.08;;
23322;SDS011;11833;52.554;13.554;2023-02-22T16:33:53;9.68;;;1.85;;
23322;SDS011;11833;52.554;13.554;2023-02-22T16:36:20;7.70;;;2.40;;
23322;SDS011;11833;52.554;13.554;2023-02-22T16:39:01;13.50;;;2.17;;
23322;SDS011;11833;52.554;13.554;2023-02-22T16:41:31;8.90;;;2.53;;
23322;SDS011;11833;52.554;13.554;2023-02-22T16:43:57;8.80;;;2.45;;
23322;SDS011;11833;52.554;13.554;2023-02-22T16:46:23;6.68;;;1.90;;
23322;SDS011;11833;52.554;13.554;2023-02-22T16:48:49;15.02;;;2.33;;
23322;SDS011;11833;52.554;13.554;2023-02-22T16:53:45;6.95;;;1.80;;
23322;SDS011;11833;52.554;13.554;2023-02-22T16:56:13;4.70;;;2.35;;
23322;SDS011;11833;52.554;13.554;2023-02-22T16:58:43;7.72;;;1.77;;
23322;SDS011;11833;52.554;13.554;2023-02-22T17:01:11;11.02;;;2.03;;
23322;SDS011;11833;52.554;13.554;2023-02-22T17:03:37;9.50;;;2.10;;
23322;SDS011;11833;52.554;13.554;2023-02-22T17:06:03;9.20;;;1.63;;
23322;SDS011;11833;52.554;13.554;2023-02-22T17:08:29;7.20;;;2.10;;
23322;SDS011;11833;52.554;13.554;2023-02-22T17:10:56;9.68;;;2.28;;
23322;SDS011;11833;52.554;13.554;2023-02-22T17:13:25;6.93;;;1.85;;
23322;SDS011;11833;52.554;13.554;2023-02-22T17:15:53;10.55;;;2.17;;
23322;SDS011;11833;52.554;13.554;2023-02-22T17:18:20;9.70;;;2.10;;
23322;SDS011;11833;52.554;13.554;2023-02-22T17:20:51;9.23;;;1.70;;
23322;SDS011;11833;52.554;13.554;2023-02-22T17:23:19;8.10;;;2.58;;
23322;SDS011;11833;52.554;13.554;2023-02-22T17:25:48;10.45;;;2.28;;
23322;SDS011;11833;52.554;13.554;2023-02-22T17:28:15;7.28;;;2.22;;
23322;SDS011;11833;52.554;13.554;2023-02-22T17:30:40;13.02;;;2.45;;
23322;SDS011;11833;52.554;13.554;2023-02-22T17:33:09;9.30;;;2.22;;
23322;SDS011;11833;52.554;13.554;2023-02-22T17:35:39;6.35;;;2.15;;
23322;SDS011;11833;52.554;13.554;2023-02-22T17:38:05;7.30;;;2.15;;
23322;SDS011;11833;52.554;13.554;2023-02-22T17:40:32;12.15;;;2.10;;
23322;SDS011;11833;52.554;13.554;2023-02-22T17:43:02;7.22;;;2.17;;
23322;SDS011;11833;52.554;13.554;2023-02-22T17:45:31;15.43;;;2.40;;
23322;SDS011;11833;52.554;13.554;2023-02-22T17:47:57;7.65;;;1.80;;
23322;SDS011;11833;52.554;13.554;2023-02-22T17:50:23;6.07;;;1.95;;
23322;SDS011;11833;52.554;13.554;2023-02-22T17:52:50;6.78;;;2.08;;
23322;SDS011;11833;52.554;13.554;2023-02-22T17:55:17;7.80;;;2.40;;
23322;SDS011;11833;52.554;13.554;2023-02-22T17:57:44;7.80;;;2.00;;
23322;SDS011;11833;52.554;13.554;2023-02-22T18:00:13;11.23;;;2.55;;
23322;SDS011;11833;52.554;13.554;2023-02-22T18:02:47;7.97;;;2.22;;
23322;SDS011;11833;52.554;13.554;2023-02-22T18:05:15;6.45;;;2.97;;
23322;SDS011;11833;52.554;13.554;2023-02-22T18:07:45;6.07;;;1.83;;
23322;SDS011;11833;52.554;13.554;2023-02-22T18:10:11;6.85;;;2.00;;
23322;SDS011;11833;52.554;13.554;2023-02-22T18:12:37;7.60;;;3.20;;
23322;SDS011;11833;52.554;13.554;2023-02-22T18:15:05;9.38;;;2.38;;
23322;SDS011;11833;52.554;13.554;2023-02-22T18:17:33;10.88;;;2.95;;
23322;SDS011;11833;52.554;13.554;2023-02-22T18:20:00;8.38;;;2.17;;
23322;SDS011;11833;52.554;13.554;2023-02-22T18:22:26;12.90;;;2.50;;
23322;SDS011;11833;52.554;13.554;2023-02-22T18:24:52;6.05;;;2.15;;
23322;SDS011;11833;52.554;13.554;2023-02-22T18:27:18;7.32;;;2.80;;
23322;SDS011;11833;52.554;13.554;2023-02-22T18:29:44;9.68;;;2.60;;
23322;SDS011;11833;52.554;13.554;2023-02-22T18:32:10;9.43;;;2.30;;
23322;SDS011;11833;52.554;13.554;2023-02-22T18:34:37;10.70;;;2.50;;
23322;SDS011;11833;52.554;13.554;2023-02-22T18:37:04;7.60;;;2.20;;
23322;SDS011;11833;52.554;13.554;2023-02-22T18:39:30;10.85;;;3.05;;
23322;SDS011;11833;52.554;13.554;2023-02-22T18:42:04;9.93;;;2.65;;
23322;SDS011;11833;52.554;13.554;2023-02-22T18:44:30;8.20;;;2.92;;
23322;SDS011;11833;52.554;13.554;2023-02-22T18:46:56;6.85;;;2.47;;
23322;SDS011;11833;52.554;13.554;2023-02-22T18:49:22;10.27;;;2.50;;
23322;SDS011;11833;52.554;13.554;2023-02-22T18:51:50;12.63;;;3.35;;
23322;SDS011;11833;52.554;13.554;2023-02-22T18:54:16;12.90;;;3.53;;
23322;SDS011;11833;52.554;13.554;2023-02-22T18:56:43;13.93;;;2.97;;
23322;SDS011;11833;52.554;13.554;2023-02-22T18:59:10;5.50;;;2.67;;
23322;SDS011;11833;52.554;13.554;2023-02-22T19:01:37;7.28;;;2.70;;
23322;SDS011;11833;52.554;13.554;2023-02-22T19:04:05;10.80;;;2.80;;
23322;SDS011;11833;52.554;13.554;2023-02-22T19:06:36;8.23;;;2.40;;
23322;SDS011;11833;52.554;13.554;2023-02-22T19:09:03;12.95;;;3.00;;
23322;SDS011;11833;52.554;13.554;2023-02-22T19:11:33;8.30;;;3.20;;